Time;durP1;ratioP1;P1;durP2;ratioP2;P2;SDS_P1;SDS_P2;PMS_P1;PMS_P2;Temp;Humidity;BMP_temperature;BMP_pressure;BME280_temperature;BME280_humidity;BME280_pressure;Samples;Min_cycle;Max_cycle;Signal;HPM_P1;HPM_P2
2021/08/23 00:02:16;;;;;;;5.72;3.20;;;;;;;16.30;100.00;98249.53;5030142;28;20049;-61
2021/08/23 00:04:41;;;;;;;5.90;3.55;;;;;;;16.17;100.00;98252.03;5030415;28;20043;-62
2021/08/23 00:07:06;;;;;;;5.07;3.55;;;;;;;16.16;100.00;98247.72;5034722;28;20108;-61
2021/08/23 00:09:32;;;;;;;4.97;2.80;;;;;;;16.44;100.00;98248.69;5028036;28;20112;-62
2021/08/23 00:11:58;;;;;;;9.90;3.60;;;;;;;16.40;99.48;98255.09;5029417;28;20060;-61
2021/08/23 00:14:23;;;;;;;6.00;3.80;;;;;;;16.12;100.00;98248.81;5029574;28;20025;-63
2021/08/23 00:16:49;;;;;;;6.00;3.65;;;;;;;16.30;99.81;98246.88;5028244;28;20071;-62
2021/08/23 00:19:14;;;;;;;6.20;3.10;;;;;;;16.55;98.79;98248.88;5027791;28;20495;-64
2021/08/23 00:21:43;;;;;;;6.55;3.53;;;;;;;16.11;100.00;98249.78;5028674;28;20692;-61
2021/08/23 00:24:21;;;;;;;6.22;3.72;;;;;;;16.23;100.00;98249.06;5032373;28;20033;-63
2021/08/23 00:26:58;;;;;;;5.82;3.42;;;;;;;16.16;100.00;98247.72;5029074;28;20479;-62
2021/08/23 00:29:24;;;;;;;7.15;3.85;;;;;;;16.42;99.67;98246.16;5027605;28;20025;-61
2021/08/23 00:31:50;;;;;;;6.28;3.60;;;;;;;16.37;100.00;98246.41;5027808;28;20510;-61
2021/08/23 00:34:18;;;;;;;6.53;3.30;;;;;;;16.44;99.71;98248.69;5028011;28;20029;-62
2021/08/23 00:36:43;;;;;;;8.68;4.75;;;;;;;16.06;100.00;98246.56;5029547;28;20026;-62
2021/08/23 00:39:13;;;;;;;6.18;3.95;;;;;;;16.13;100.00;98253.16;5028943;28;20099;-64
2021/08/23 00:41:39;;;;;;;6.75;4.40;;;;;;;16.14;100.00;98254.88;5029152;28;20033;-64
2021/08/23 00:44:06;;;;;;;4.85;3.05;;;;;;;16.72;98.26;98246.03;5030405;28;20115;-63
2021/08/23 00:46:32;;;;;;;6.28;3.92;;;;;;;16.38;99.34;98252.56;5027762;28;20024;-62
2021/08/23 00:48:59;;;;;;;7.85;4.00;;;;;;;16.14;100.00;98255.72;5028886;28;20079;-62
2021/08/23 00:51:24;;;;;;;6.55;3.90;;;;;;;16.57;99.00;98257.53;5029280;28;20052;-62
2021/08/23 00:53:52;;;;;;;9.82;4.05;;;;;;;16.55;99.13;98260.25;5030842;28;20556;-61
2021/08/23 00:56:18;;;;;;;7.97;4.50;;;;;;;16.39;99.15;98256.84;5012321;28;20447;-62
2021/08/23 00:58:47;;;;;;;6.60;4.30;;;;;;;16.58;99.66;98264.50;5027881;28;20034;-63
2021/08/23 01:01:37;;;;;;;12.23;4.32;;;;;;;16.57;99.07;98261.00;5027323;28;20043;-61
2021/08/23 01:04:11;;;;;;;8.02;4.70;;;;;;;16.11;100.00;98257.69;5028637;28;20044;-61
2021/08/23 01:06:37;;;;;;;8.40;4.65;;;;;;;16.21;100.00;98261.47;5026506;28;20029;-63
2021/08/23 01:09:06;;;;;;;6.75;4.25;;;;;;;16.21;100.00;98261.47;5029156;28;20543;-64
2021/08/23 01:11:41;;;;;;;7.80;4.45;;;;;;;16.19;100.00;98261.56;5026258;28;20541;-64
2021/08/23 01:14:08;;;;;;;6.07;4.60;;;;;;;16.20;100.00;98262.41;5028306;28;20029;-64
2021/08/23 01:16:34;;;;;;;6.78;4.25;;;;;;;16.31;99.67;98262.59;5027417;28;20021;-63
2021/08/23 01:18:59;;;;;;;6.38;4.15;;;;;;;16.29;100.00;98267.09;5028126;28;20155;-64
2021/08/23 01:21:27;;;;;;;8.70;3.97;;;;;;;16.72;97.34;98267.09;5029634;28;20033;-62
2021/08/23 01:23:55;;;;;;;6.28;3.85;;;;;;;16.41;99.22;98264.66;5029050;28;20915;-62
2021/08/23 01:26:28;;;;;;;6.53;4.38;;;;;;;16.70;97.75;98262.88;5026564;28;20084;-62
2021/08/23 01:29:36;;;;;;;11.50;4.40;;;;;;;16.36;99.76;98259.69;5027957;28;20167;-60
2021/08/23 01:32:12;;;;;;;9.55;4.60;;;;;;;16.46;100.00;98255.56;5017001;28;20049;-63
2021/08/23 01:34:39;;;;;;;9.15;4.35;;;;;;;16.17;100.00;98262.56;5030960;28;20029;-63
2021/08/23 01:37:05;;;;;;;7.43;4.50;;;;;;;16.32;100.00;98261.66;5025887;28;20036;-65
2021/08/23 01:39:33;;;;;;;8.23;4.53;;;;;;;16.14;100.00;98273.28;5029392;28;20017;-65
2021/08/23 01:42:00;;;;;;;6.97;4.38;;;;;;;16.08;100.00;98258.72;5035668;28;20535;-66
2021/08/23 01:44:26;;;;;;;7.40;4.28;;;;;;;16.30;100.00;98258.28;5029424;28;20602;-66
2021/08/23 01:46:51;;;;;;;8.35;4.47;;;;;;;16.32;99.68;98259.03;5028153;28;20025;-63
2021/08/23 01:49:16;;;;;;;10.75;4.05;;;;;;;16.30;100.00;98257.41;5025425;28;20405;-65
2021/08/23 01:51:41;;;;;;;8.30;4.47;;;;;;;16.55;98.52;98256.78;5026739;28;20407;-65
2021/08/23 01:54:07;;;;;;;7.05;4.07;;;;;;;16.44;99.90;98256.59;5025633;28;20568;-65
2021/08/23 01:56:32;;;;;;;8.32;4.63;;;;;;;16.42;100.00;98253.22;5027600;28;20037;-63
2021/08/23 01:59:04;;;;;;;9.88;4.20;;;;;;;16.37;100.00;98256.94;5027839;28;20017;-61
2021/08/23 02:01:31;;;;;;;7.38;4.18;;;;;;;16.48;99.75;98252.81;5024702;28;20030;-66
2021/08/23 02:03:56;;;;;;;6.68;4.35;;;;;;;16.56;98.66;98251.44;5022545;28;20043;-66
2021/08/23 02:06:23;;;;;;;7.20;3.90;;;;;;;16.52;99.01;98254.31;5023741;28;20033;-65
2021/08/23 02:08:48;;;;;;;10.02;4.80;;;;;;;16.47;99.56;98253.75;5024289;28;20043;-65
2021/08/23 02:11:14;;;;;;;8.23;4.63;;;;;;;16.44;99.96;98251.31;5024022;28;20029;-64
2021/08/23 02:13:39;;;;;;;8.45;4.35;;;;;;;16.66;98.04;98242.97;5026888;28;20033;-65
2021/08/23 02:16:05;;;;;;;5.25;3.28;;;;;;;17.02;97.13;98254.78;5027720;28;20399;-66
2021/08/23 02:18:30;;;;;;;12.18;4.25;;;;;;;16.60;99.07;98261.75;5027333;28;20087;-64
2021/08/23 02:20:55;;;;;;;7.18;4.50;;;;;;;16.52;99.58;98263.09;5024325;28;20021;-64
2021/08/23 02:23:21;;;;;;;6.15;4.05;;;;;;;16.41;100.00;98259.41;5023918;28;20029;-61
2021/08/23 02:25:46;;;;;;;7.25;4.60;;;;;;;16.42;100.00;98255.84;5027384;28;20033;-63
2021/08/23 02:28:11;;;;;;;7.72;4.38;;;;;;;16.55;99.93;98247.09;5022975;28;20025;-64
2021/08/23 02:30:38;;;;;;;9.52;5.00;;;;;;;16.47;100.00;98246.72;5026869;28;20025;-64
2021/08/23 02:33:04;;;;;;;7.50;4.57;;;;;;;16.66;99.07;98256.97;5027328;28;20637;-63
2021/08/23 02:35:29;;;;;;;8.15;4.85;;;;;;;16.27;100.00;98255.81;5026055;28;20072;-64
2021/08/23 02:37:54;;;;;;;7.43;4.80;;;;;;;16.37;100.00;98261.38;5026684;28;20113;-63
2021/08/23 02:40:20;;;;;;;8.15;5.10;;;;;;;16.37;100.00;98254.31;5026909;28;20025;-63
2021/08/23 02:42:45;;;;;;;8.20;4.18;;;;;;;16.87;97.97;98238.16;5025726;28;20025;-66
2021/08/23 02:45:11;;;;;;;8.20;4.10;;;;;;;16.45;100.00;98247.75;5028846;28;20436;-64
2021/08/23 02:47:36;;;;;;;6.35;4.47;;;;;;;16.51;100.00;98242.97;5025692;28;20129;-65
2021/08/23 02:50:07;;;;;;;6.80;4.88;;;;;;;16.64;98.92;98245.69;5026841;28;20036;-63
2021/08/23 02:52:33;;;;;;;9.23;4.35;;;;;;;16.51;99.57;98239.47;5024606;28;20045;-65
2021/08/23 02:54:58;;;;;;;7.88;4.30;;;;;;;16.52;99.96;98238.53;5031151;28;20024;-63
2021/08/23 02:57:24;;;;;;;7.80;4.85;;;;;;;16.49;99.25;98233.47;5027171;28;20013;-62
2021/08/23 02:59:49;;;;;;;10.07;5.07;;;;;;;16.42;100.00;98243.53;5026753;28;20021;-63
2021/08/23 03:02:14;;;;;;;7.57;4.68;;;;;;;16.27;100.00;98240.03;5028391;28;20077;-65
2021/08/23 03:04:40;;;;;;;8.35;4.70;;;;;;;16.45;100.00;98245.09;5027065;28;20029;-62
2021/08/23 03:07:05;;;;;;;8.52;4.82;;;;;;;16.55;99.49;98243.63;5026899;28;20052;-64
2021/08/23 03:09:31;;;;;;;7.53;3.92;;;;;;;16.48;99.52;98242.28;5027331;28;20052;-63
2021/08/23 03:11:56;;;;;;;7.15;4.43;;;;;;;16.43;99.75;98239.97;5025653;28;20029;-65
2021/08/23 03:14:21;;;;;;;8.48;4.53;;;;;;;16.58;99.41;98239.00;5026781;28;20628;-63
2021/08/23 03:16:47;;;;;;;8.90;3.97;;;;;;;16.39;100.00;98238.44;5026085;28;20353;-65
2021/08/23 03:19:12;;;;;;;7.53;5.00;;;;;;;16.48;98.91;98237.03;5026602;28;20033;-65
2021/08/23 03:21:38;;;;;;;7.75;5.05;;;;;;;16.41;100.00;98243.59;5028719;28;20025;-65
2021/08/23 03:24:03;;;;;;;8.45;4.40;;;;;;;16.62;98.24;98229.13;5026687;28;20033;-63
2021/08/23 03:26:29;;;;;;;6.47;4.22;;;;;;;16.79;96.87;98235.13;5028275;28;20029;-65
2021/08/23 03:28:54;;;;;;;10.50;4.70;;;;;;;16.52;98.76;98225.38;5026399;28;20025;-63
2021/08/23 03:31:19;;;;;;;6.55;4.80;;;;;;;16.59;98.23;98229.31;5027362;28;20071;-62
2021/08/23 03:33:45;;;;;;;13.15;4.88;;;;;;;16.45;98.42;98238.06;5029796;28;20037;-62
2021/08/23 03:36:10;;;;;;;6.82;4.18;;;;;;;16.53;98.55;98229.69;5029943;28;20764;-61
2021/08/23 03:38:36;;;;;;;8.73;5.10;;;;;;;16.37;99.63;98235.06;5029229;28;20021;-62
2021/08/23 03:41:02;;;;;;;9.57;5.05;;;;;;;16.62;98.45;98229.13;5028389;28;20075;-63
2021/08/23 03:43:27;;;;;;;8.82;4.90;;;;;;;16.57;98.44;98225.94;5029864;28;20033;-63
2021/08/23 03:45:52;;;;;;;10.82;4.85;;;;;;;16.49;98.50;98228.19;5030209;28;20029;-63
2021/08/23 03:48:18;;;;;;;10.73;5.07;;;;;;;16.27;99.30;98234.78;5031403;28;20025;-63
2021/08/23 03:50:43;;;;;;;8.88;4.72;;;;;;;16.61;97.99;98240.59;5028626;28;20332;-65
2021/08/23 03:53:08;;;;;;;7.78;5.22;;;;;;;16.37;100.00;98243.78;5028323;28;20509;-64
2021/08/23 03:55:33;;;;;;;6.38;4.63;;;;;;;16.51;98.73;98237.69;5036922;28;20024;-66
2021/08/23 03:57:59;;;;;;;7.65;4.80;;;;;;;16.61;97.71;98227.44;5030315;28;20028;-63
2021/08/23 04:00:24;;;;;;;8.27;5.20;;;;;;;16.57;98.03;98236.47;5028636;28;20955;-64
2021/08/23 04:02:50;;;;;;;7.28;4.68;;;;;;;16.50;98.86;98224.63;5028984;28;20032;-63
2021/08/23 04:05:15;;;;;;;7.22;5.20;;;;;;;16.53;97.51;98234.97;5029216;28;20401;-65
2021/08/23 04:07:40;;;;;;;7.93;5.05;;;;;;;16.52;98.27;98243.78;5027050;28;20532;-64
2021/08/23 04:10:07;;;;;;;9.95;5.55;;;;;;;16.22;100.00;98247.34;5032139;28;20020;-62
2021/08/23 04:12:32;;;;;;;7.88;4.82;;;;;;;16.57;98.91;98247.00;5028729;28;20522;-62
2021/08/23 04:14:59;;;;;;;7.05;5.00;;;;;;;16.36;99.65;98250.00;5029257;28;20029;-62
2021/08/23 04:17:24;;;;;;;7.50;4.70;;;;;;;16.69;97.87;98245.38;5027376;28;20032;-64
2021/08/23 04:19:50;;;;;;;10.93;5.72;;;;;;;16.64;98.82;98252.75;5032189;28;20020;-61
2021/08/23 04:22:15;;;;;;;6.30;4.45;;;;;;;16.62;98.88;98250.19;5030356;28;20033;-61
2021/08/23 04:24:40;;;;;;;8.85;5.40;;;;;;;16.58;98.81;98253.97;5028746;28;20029;-63
2021/08/23 04:27:06;;;;;;;7.10;4.63;;;;;;;16.70;99.15;98252.34;5029583;28;20116;-61
2021/08/23 04:29:32;;;;;;;8.45;5.25;;;;;;;16.74;98.15;98248.56;5026848;28;20486;-61
2021/08/23 04:31:57;;;;;;;9.40;5.22;;;;;;;16.83;97.40;98252.47;5027439;28;20036;-62
2021/08/23 04:34:23;;;;;;;10.43;5.70;;;;;;;16.73;97.46;98247.75;5030015;28;20601;-62
2021/08/23 04:36:48;;;;;;;8.98;5.85;;;;;;;16.46;98.69;98254.72;5029293;28;20040;-64
2021/08/23 04:39:13;;;;;;;11.80;5.05;;;;;;;16.46;99.53;98252.06;5027915;28;20035;-62
2021/08/23 04:41:41;;;;;;;7.15;5.10;;;;;;;16.61;98.68;98253.75;5029879;28;20100;-64
2021/08/23 04:44:07;;;;;;;9.38;4.85;;;;;;;16.89;96.99;98250.31;5027262;28;20124;-62
2021/08/23 04:46:34;;;;;;;6.75;5.05;;;;;;;16.62;97.30;98260.72;5037075;28;20160;-62
2021/08/23 04:48:59;;;;;;;7.38;4.82;;;;;;;16.65;98.51;98263.19;5028865;28;20112;-62
2021/08/23 04:51:25;;;;;;;8.90;5.47;;;;;;;16.68;97.05;98260.34;5028027;28;20108;-63
2021/08/23 04:53:50;;;;;;;9.70;5.35;;;;;;;16.47;99.24;98261.66;5028038;28;20109;-63
2021/08/23 04:56:16;;;;;;;10.90;6.30;;;;;;;16.45;98.60;98264.41;5027031;28;21088;-63
2021/08/23 04:58:42;;;;;;;8.57;5.30;;;;;;;16.80;98.31;98263.16;5027113;28;20021;-63
2021/08/23 05:01:07;;;;;;;10.00;5.82;;;;;;;16.41;98.55;98262.88;5027491;28;20028;-62
2021/08/23 05:03:33;;;;;;;10.63;5.60;;;;;;;16.65;98.08;98264.94;5029413;28;20487;-63
2021/08/23 05:05:58;;;;;;;11.65;6.03;;;;;;;16.45;99.25;98268.81;5031256;28;20028;-61
2021/08/23 05:08:24;;;;;;;8.30;5.32;;;;;;;16.88;96.84;98258.31;5029192;28;20057;-64
2021/08/23 05:10:49;;;;;;;8.18;5.72;;;;;;;16.61;98.28;98264.28;5032183;28;20017;-63
2021/08/23 05:13:14;;;;;;;7.32;4.70;;;;;;;16.86;96.74;98257.56;5030600;28;20047;-62
2021/08/23 05:15:40;;;;;;;12.43;5.63;;;;;;;16.42;98.46;98261.09;5029662;28;20529;-61
2021/08/23 05:18:05;;;;;;;9.93;6.10;;;;;;;16.72;96.98;98256.56;5027614;28;20086;-61
2021/08/23 05:20:31;;;;;;;7.25;5.40;;;;;;;16.61;97.68;98263.47;5032062;28;20030;-63
2021/08/23 05:22:56;;;;;;;9.90;5.13;;;;;;;16.67;98.35;98255.16;5032023;28;20031;-61
2021/08/23 05:25:22;;;;;;;8.63;5.90;;;;;;;16.51;98.49;98264.03;5028632;28;20083;-62
2021/08/23 05:27:47;;;;;;;12.52;5.30;;;;;;;16.84;97.36;98259.44;5031703;28;20017;-64
2021/08/23 05:30:13;;;;;;;13.18;5.95;;;;;;;16.69;97.96;98256.78;5028813;28;20060;-64
2021/08/23 05:32:39;;;;;;;10.80;5.72;;;;;;;16.91;96.91;98256.31;5030790;28;20124;-62
2021/08/23 05:35:05;;;;;;;9.10;5.90;;;;;;;17.02;96.36;98257.41;5030067;28;20025;-64
2021/08/23 05:37:31;;;;;;;9.95;6.63;;;;;;;16.85;97.24;98258.47;5029833;28;20025;-63
2021/08/23 05:39:56;;;;;;;11.35;7.05;;;;;;;16.80;97.88;98252.63;5031335;28;20031;-63
2021/08/23 05:42:21;;;;;;;11.90;6.03;;;;;;;17.01;99.04;98251.31;5028817;28;20555;-62
2021/08/23 05:44:47;;;;;;;12.88;5.90;;;;;;;17.21;98.20;98254.47;5030307;28;20110;-63
2021/08/23 05:47:13;;;;;;;10.90;6.38;;;;;;;17.01;97.34;98248.69;5030194;28;20440;-63
2021/08/23 05:49:38;;;;;;;12.00;6.68;;;;;;;17.14;98.97;98256.66;5030082;28;20444;-61
2021/08/23 05:52:04;;;;;;;12.43;6.80;;;;;;;17.11;97.21;98252.44;5031706;28;20277;-61
2021/08/23 05:54:29;;;;;;;11.77;6.75;;;;;;;16.94;96.41;98250.00;5029189;28;20033;-64
2021/08/23 05:56:57;;;;;;;12.57;6.53;;;;;;;17.35;99.11;98257.06;5033614;28;20060;-62
2021/08/23 05:59:25;;;;;;;10.23;5.93;;;;;;;17.15;98.25;98253.91;5029616;28;20088;-63
2021/08/23 06:01:54;;;;;;;11.70;6.55;;;;;;;16.77;99.11;98257.13;5029337;28;20064;-65
2021/08/23 06:04:22;;;;;;;9.27;5.97;;;;;;;17.04;99.08;98260.81;5029258;28;20025;-61
2021/08/23 06:06:49;;;;;;;11.60;6.72;;;;;;;16.79;98.81;98256.22;5031951;28;20025;-62
2021/08/23 06:09:19;;;;;;;14.18;6.22;;;;;;;16.97;98.91;98257.72;5032553;28;20025;-61
2021/08/23 06:11:44;;;;;;;9.40;5.95;;;;;;;16.91;98.30;98255.47;5030119;28;20182;-63
2021/08/23 06:14:10;;;;;;;11.35;5.68;;;;;;;17.27;97.25;98254.91;5031022;28;20508;-60
2021/08/23 06:16:35;;;;;;;15.55;5.43;;;;;;;17.24;95.77;98254.25;5029373;28;20036;-62
2021/08/23 06:19:01;;;;;;;10.18;7.22;;;;;;;16.74;97.65;98254.72;5030615;28;20029;-60
2021/08/23 06:21:26;;;;;;;9.70;6.15;;;;;;;16.90;97.27;98259.88;5030368;28;20514;-62
2021/08/23 06:23:52;;;;;;;9.05;5.05;;;;;;;17.41;94.76;98256.66;5031269;28;20036;-61
2021/08/23 06:26:17;;;;;;;8.30;5.70;;;;;;;17.17;96.06;98258.22;5030933;28;20040;-61
2021/08/23 06:28:43;;;;;;;10.75;6.20;;;;;;;17.22;95.59;98259.66;5029975;28;20739;-63
2021/08/23 06:31:09;;;;;;;9.23;5.95;;;;;;;17.12;95.35;98259.38;5031465;28;20028;-63
2021/08/23 06:33:35;;;;;;;7.35;4.88;;;;;;;17.52;94.47;98250.69;5030260;28;20032;-61
2021/08/23 06:36:00;;;;;;;13.02;6.00;;;;;;;17.76;93.01;98248.25;5031175;28;20847;-63
2021/08/23 06:38:26;;;;;;;9.45;6.05;;;;;;;17.59;91.94;98252.00;5030553;28;20044;-61
2021/08/23 06:40:51;;;;;;;8.25;5.40;;;;;;;17.49;93.46;98251.72;5031288;28;20028;-63
2021/08/23 06:43:17;;;;;;;8.35;5.68;;;;;;;17.60;92.64;98247.56;5029793;28;20033;-62
2021/08/23 06:45:44;;;;;;;9.63;6.10;;;;;;;17.64;91.88;98255.16;5029171;28;20222;-63
2021/08/23 06:48:09;;;;;;;10.82;6.28;;;;;;;17.28;94.19;98258.41;5031180;28;20521;-63
2021/08/23 06:50:35;;;;;;;9.70;6.40;;;;;;;17.32;93.83;98259.91;5028591;28;20065;-61
2021/08/23 06:53:02;;;;;;;9.27;5.80;;;;;;;17.20;95.64;98255.41;5030843;28;20517;-61
2021/08/23 06:55:28;;;;;;;10.15;5.90;;;;;;;17.40;94.20;98249.69;5028488;28;20107;-61
2021/08/23 06:57:55;;;;;;;9.88;5.90;;;;;;;17.60;93.23;98253.66;5029856;28;20029;-62
2021/08/23 07:00:21;;;;;;;9.32;6.30;;;;;;;17.84;91.39;98261.75;5028337;28;20025;-61
2021/08/23 07:02:47;;;;;;;8.98;6.25;;;;;;;17.88;90.33;98255.38;5030619;28;20026;-63
2021/08/23 07:05:12;;;;;;;12.65;5.82;;;;;;;17.47;90.70;98248.34;5027236;28;20053;-63
2021/08/23 07:07:38;;;;;;;7.22;5.25;;;;;;;18.09;89.89;98255.72;5032003;28;20027;-63
2021/08/23 07:10:04;;;;;;;9.43;6.97;;;;;;;17.95;89.41;98252.31;5041198;28;20558;-63
2021/08/23 07:12:29;;;;;;;9.10;6.38;;;;;;;18.21;89.63;98254.03;5029889;28;20029;-61
2021/08/23 07:14:55;;;;;;;8.82;5.57;;;;;;;18.09;91.27;98253.06;5031785;28;20137;-61
2021/08/23 07:17:20;;;;;;;10.68;5.80;;;;;;;18.32;90.24;98255.94;5033884;28;20030;-64
2021/08/23 07:19:46;;;;;;;9.55;5.28;;;;;;;18.40;89.33;98258.06;5033749;28;20059;-62
2021/08/23 07:22:18;;;;;;;9.30;6.40;;;;;;;17.88;90.16;98252.72;5031711;28;20021;-63
2021/08/23 07:24:45;;;;;;;;;;;;;;;18.10;88.61;98256.53;5032648;28;20032;-64
2021/08/23 07:27:10;;;;;;;11.88;5.65;;;;;;;18.24;88.93;98253.81;5030323;28;19917;-62
2021/08/23 07:29:36;;;;;;;9.95;5.93;;;;;;;18.23;88.55;98256.56;5040703;28;20021;-61
2021/08/23 07:32:01;;;;;;;8.60;5.63;;;;;;;18.83;85.44;98255.91;5031573;28;20027;-62
2021/08/23 07:34:27;;;;;;;10.43;6.05;;;;;;;18.93;86.07;98265.84;5033177;28;20139;-61
2021/08/23 07:36:52;;;;;;;11.32;5.60;;;;;;;18.55;86.96;98264.91;5033854;28;20032;-64
2021/08/23 07:39:18;;;;;;;8.20;5.68;;;;;;;18.74;86.16;98263.63;5033380;28;20075;-61
2021/08/23 07:41:43;;;;;;;10.23;5.25;;;;;;;18.81;86.16;98267.56;5031622;28;20052;-63
2021/08/23 07:44:09;;;;;;;9.02;6.72;;;;;;;18.56;86.13;98265.75;5033756;28;20059;-61
2021/08/23 07:46:34;;;;;;;8.82;6.10;;;;;;;18.15;87.89;98265.00;5030217;28;20029;-63
2021/08/23 07:48:59;;;;;;;8.85;6.03;;;;;;;18.32;88.02;98271.78;5031381;28;20426;-62
2021/08/23 07:51:27;;;;;;;8.88;5.32;;;;;;;18.19;88.47;98271.75;5030502;28;20048;-62
2021/08/23 07:53:52;;;;;;;9.02;5.93;;;;;;;17.98;89.51;98268.78;5030196;28;20029;-61
2021/08/23 07:56:17;;;;;;;8.88;6.15;;;;;;;18.44;88.55;98275.38;5031451;28;21083;-62
2021/08/23 07:58:43;;;;;;;10.02;6.03;;;;;;;18.55;85.90;98278.13;5030918;28;20029;-61
2021/08/23 08:01:08;;;;;;;7.90;5.80;;;;;;;18.80;85.38;98273.75;5032165;28;20032;-61
2021/08/23 08:03:34;;;;;;;10.95;6.97;;;;;;;18.36;86.71;98272.41;5039812;28;20029;-63
2021/08/23 08:05:59;;;;;;;8.10;5.50;;;;;;;18.55;87.75;98280.75;5032745;28;20502;-62
2021/08/23 08:08:25;;;;;;;10.82;6.60;;;;;;;18.40;88.68;98273.91;5032374;28;20115;-61
2021/08/23 08:10:50;;;;;;;8.52;5.10;;;;;;;18.67;87.33;98277.28;5033062;28;20111;-62
2021/08/23 08:13:20;;;;;;;9.48;6.70;;;;;;;18.39;88.13;98273.03;5031148;28;20031;-61
2021/08/23 08:15:45;;;;;;;10.05;6.68;;;;;;;18.99;84.90;98271.53;5030556;28;20022;-62
2021/08/23 08:18:11;;;;;;;8.23;5.10;;;;;;;18.68;88.82;98281.59;5029028;28;20111;-63
2021/08/23 08:20:36;;;;;;;11.63;6.32;;;;;;;18.36;89.21;98277.69;5031566;28;20494;-62
2021/08/23 08:23:01;;;;;;;8.98;5.70;;;;;;;18.33;89.12;98283.19;5030347;28;20087;-63
2021/08/23 08:25:27;;;;;;;8.77;6.00;;;;;;;18.33;88.48;98278.75;5029987;28;20099;-62
2021/08/23 08:27:52;;;;;;;8.93;6.40;;;;;;;18.89;86.30;98286.34;5030206;28;20096;-64
2021/08/23 08:30:17;;;;;;;10.27;5.88;;;;;;;18.90;85.81;98280.13;5039314;28;20048;-63
2021/08/23 08:32:46;;;;;;;8.68;6.50;;;;;;;18.78;86.77;98284.44;5031657;28;20080;-63
2021/08/23 08:35:12;;;;;;;10.93;7.22;;;;;;;18.48;90.11;98284.78;5028762;28;20422;-63
2021/08/23 08:37:38;;;;;;;11.45;7.03;;;;;;;18.92;87.18;98280.88;5029987;28;20025;-63
2021/08/23 08:40:04;;;;;;;10.40;7.03;;;;;;;18.52;89.31;98278.31;5029812;28;20021;-62
2021/08/23 08:42:30;;;;;;;6.32;4.88;;;;;;;18.55;88.66;98278.13;5028464;28;20067;-61
2021/08/23 08:44:55;;;;;;;8.60;6.32;;;;;;;18.50;89.73;98286.34;5029765;28;20112;-61
2021/08/23 08:47:21;;;;;;;10.57;7.05;;;;;;;18.75;88.79;98286.44;5038847;28;20482;-61
2021/08/23 08:49:47;;;;;;;7.80;6.03;;;;;;;18.57;87.31;98286.78;5030772;28;20029;-62
2021/08/23 08:52:14;;;;;;;8.25;6.00;;;;;;;18.88;86.87;98279.41;5030372;28;20037;-61
2021/08/23 08:54:41;;;;;;;10.63;6.00;;;;;;;18.52;87.27;98294.19;5032731;28;20040;-60
2021/08/23 08:57:07;;;;;;;10.55;6.38;;;;;;;18.66;86.93;98290.59;5030326;28;20194;-63
2021/08/23 08:59:35;;;;;;;10.07;6.40;;;;;;;18.80;86.00;98289.63;5029032;28;20069;-60
2021/08/23 09:02:02;;;;;;;10.70;6.70;;;;;;;19.09;83.69;98284.94;5031448;28;20029;-61
2021/08/23 09:04:32;;;;;;;12.32;7.50;;;;;;;19.00;83.96;98289.09;5030400;28;20021;-61
2021/08/23 09:06:59;;;;;;;9.13;5.60;;;;;;;19.78;81.74;98287.06;5031579;28;20037;-61
2021/08/23 09:09:25;;;;;;;8.70;6.38;;;;;;;19.27;83.94;98282.78;5028538;28;20048;-60
2021/08/23 09:12:11;;;;;;;8.05;5.85;;;;;;;19.36;81.21;98283.94;5030951;28;20391;-60
2021/08/23 09:14:50;;;;;;;10.73;7.25;;;;;;;19.01;82.95;98289.94;5030418;28;20099;-60
2021/08/23 09:17:25;;;;;;;8.98;6.50;;;;;;;19.12;82.39;98292.66;5029791;28;20621;-62
2021/08/23 09:20:03;;;;;;;7.85;6.18;;;;;;;18.88;83.87;98295.25;5030292;28;20033;-60
2021/08/23 09:22:28;;;;;;;10.18;6.13;;;;;;;19.18;82.19;98296.66;5032507;28;20104;-59
2021/08/23 09:24:54;;;;;;;9.80;6.20;;;;;;;19.10;83.01;98293.72;5029974;28;20501;-60
2021/08/23 09:27:19;;;;;;;8.13;6.43;;;;;;;19.25;82.78;98293.47;5031152;28;20440;-63
2021/08/23 09:29:54;;;;;;;9.82;7.00;;;;;;;19.19;81.74;98304.50;5027926;28;20704;-63
2021/08/23 09:32:20;;;;;;;8.55;5.45;;;;;;;19.60;80.82;98297.16;5030717;28;20206;-60
2021/08/23 09:34:47;;;;;;;8.65;6.15;;;;;;;19.70;81.71;98299.97;5029679;28;20555;-61
2021/08/23 09:37:17;;;;;;;6.75;5.28;;;;;;;20.48;77.35;98287.97;5030561;28;20030;-61
2021/08/23 09:39:43;;;;;;;6.15;5.20;;;;;;;20.80;75.52;98301.41;5029519;28;20479;-63
2021/08/23 09:42:09;;;;;;;7.28;5.65;;;;;;;19.99;77.55;98309.25;5028307;28;20033;-61
2021/08/23 09:44:38;;;;;;;7.88;5.60;;;;;;;20.08;79.15;98297.16;5027822;28;20025;-62
2021/08/23 09:47:05;;;;;;;7.22;5.20;;;;;;;19.68;79.51;98294.78;5030380;28;20550;-62
2021/08/23 09:49:36;;;;;;;7.63;5.30;;;;;;;19.75;79.58;98296.06;5026848;28;20060;-61
2021/08/23 09:52:02;;;;;;;7.40;5.35;;;;;;;19.90;78.92;98298.53;5028836;28;20685;-61
2021/08/23 09:54:29;;;;;;;6.57;5.22;;;;;;;19.70;79.90;98292.88;5029569;28;20025;-63
2021/08/23 09:56:55;;;;;;;9.07;5.47;;;;;;;19.98;78.49;98294.34;5028879;28;20029;-61
2021/08/23 09:59:22;;;;;;;6.72;5.10;;;;;;;19.84;79.55;98291.88;5030233;28;20033;-61
2021/08/23 10:01:49;;;;;;;5.93;4.15;;;;;;;20.56;76.85;98286.41;5028768;28;20032;-61
2021/08/23 10:04:16;;;;;;;8.57;4.80;;;;;;;20.15;78.79;98293.06;5029123;28;20041;-61
2021/08/23 10:06:44;;;;;;;7.88;5.18;;;;;;;19.95;79.81;98285.78;5029598;28;20427;-61
2021/08/23 10:09:15;;;;;;;7.53;5.43;;;;;;;19.82;79.41;98286.72;5031193;28;20033;-61
2021/08/23 10:11:41;;;;;;;9.25;5.90;;;;;;;19.67;81.05;98282.53;5026532;28;20112;-60
2021/08/23 10:14:08;;;;;;;8.32;5.72;;;;;;;19.53;83.30;98286.19;5029405;28;20031;-60
2021/08/23 10:16:35;;;;;;;11.20;5.22;;;;;;;19.60;81.43;98283.94;5028915;28;20582;-61
2021/08/23 10:19:02;;;;;;;7.95;6.07;;;;;;;19.43;84.02;98283.38;5029038;28;20021;-63
2021/08/23 10:21:28;;;;;;;5.75;4.25;;;;;;;20.12;81.20;98293.31;5027435;28;20731;-62
2021/08/23 10:23:55;;;;;;;9.00;5.35;;;;;;;20.05;80.97;98286.78;5029959;28;20028;-61
2021/08/23 10:26:21;;;;;;;7.05;5.30;;;;;;;20.09;81.03;98288.25;5029783;28;20742;-61
2021/08/23 10:28:50;;;;;;;7.95;5.80;;;;;;;19.38;83.76;98288.13;5027732;28;20107;-61
2021/08/23 10:31:21;;;;;;;9.00;5.88;;;;;;;20.01;82.18;98282.69;5028516;28;20035;-61
2021/08/23 10:33:49;;;;;;;11.75;5.65;;;;;;;20.22;80.43;98280.22;5030655;28;20053;-61
2021/08/23 10:36:16;;;;;;;8.57;5.80;;;;;;;20.74;81.48;98278.03;5027940;28;20788;-61
2021/08/23 10:38:43;;;;;;;7.93;5.93;;;;;;;20.52;80.72;98274.38;5030623;28;20029;-63
2021/08/23 10:41:10;;;;;;;8.55;5.60;;;;;;;20.34;80.35;98275.78;5030281;28;20079;-61
2021/08/23 10:43:46;;;;;;;7.35;5.15;;;;;;;20.72;78.93;98277.31;5028601;28;20124;-63
2021/08/23 10:46:33;;;;;;;8.13;5.88;;;;;;;20.13;79.97;98263.22;5030797;28;20037;-61
2021/08/23 10:49:03;;;;;;;8.88;5.45;;;;;;;20.67;78.28;98261.75;5026871;28;20095;-61
2021/08/23 10:51:36;;;;;;;7.88;4.93;;;;;;;20.74;78.15;98262.97;5025875;28;20411;-61
2021/08/23 10:54:24;;;;;;;8.70;5.85;;;;;;;20.15;77.76;98256.00;5029035;28;20168;-61
2021/08/23 10:57:10;;;;;;;7.97;5.60;;;;;;;20.23;79.03;98248.31;5027175;28;20462;-61
2021/08/23 10:59:44;;;;;;;9.25;5.60;;;;;;;20.15;79.28;98261.31;5030076;28;20072;-61
2021/08/23 11:02:20;;;;;;;6.95;5.07;;;;;;;20.38;77.90;98248.09;5030215;28;20507;-60
2021/08/23 11:04:56;;;;;;;7.32;4.70;;;;;;;20.74;76.72;98251.53;5027247;28;20036;-61
2021/08/23 11:07:27;;;;;;;7.47;5.43;;;;;;;20.78;78.50;98242.34;5028483;28;20033;-62
2021/08/23 11:10:09;;;;;;;9.25;5.05;;;;;;;20.75;76.38;98232.84;5027405;28;20032;-62
2021/08/23 11:12:46;;;;;;;9.90;5.35;;;;;;;20.80;78.19;98232.47;5028052;28;20030;-62
2021/08/23 11:15:32;;;;;;;8.98;5.32;;;;;;;20.65;77.22;98242.47;5029908;28;20025;-61
2021/08/23 11:18:04;;;;;;;6.95;4.50;;;;;;;20.87;76.42;98233.69;5029530;28;20048;-61
2021/08/23 11:20:32;;;;;;;7.13;5.10;;;;;;;20.65;76.57;98239.00;5028104;28;20017;-61
2021/08/23 11:23:00;;;;;;;5.85;4.78;;;;;;;21.12;76.17;98229.06;5029387;28;20536;-61
2021/08/23 11:25:34;;;;;;;8.32;5.30;;;;;;;21.08;77.90;98232.91;5027874;28;20032;-62
2021/08/23 11:28:02;;;;;;;7.72;5.63;;;;;;;21.40;75.13;98226.81;5028275;28;20026;-62
2021/08/23 11:30:30;;;;;;;8.05;6.15;;;;;;;21.01;75.96;98221.97;5029164;28;20044;-60
2021/08/23 11:32:56;;;;;;;6.95;5.07;;;;;;;20.55;76.76;98222.97;5028575;28;20311;-60